sensor_id;sensor_type;location;lat;lon;timestamp;P1;durP1;ratioP1;P2;durP2;ratioP2
34828;SDS011;21042;47.620;12.188;2023-02-01T00:01:19;13.63;;;3.97;;
34828;SDS011;21042;47.620;12.188;2023-02-01T00:03:46;17.85;;;4.63;;
34828;SDS011;21042;47.620;12.188;2023-02-01T00:06:13;9.65;;;4.38;;
34828;SDS011;21042;47.620;12.188;2023-02-01T00:08:39;12.15;;;4.78;;
34828;SDS011;21042;47.620;12.188;2023-02-01T00:11:07;8.15;;;4.18;;
34828;SDS011;21042;47.620;12.188;2023-02-01T00:13:36;10.18;;;5.00;;
34828;SDS011;21042;47.620;12.188;2023-02-01T00:16:06;8.60;;;4.07;;
34828;SDS011;21042;47.620;12.188;2023-02-01T00:18:33;9.77;;;3.45;;
34828;SDS011;21042;47.620;12.188;2023-02-01T00:23:27;7.93;;;4.43;;
34828;SDS011;21042;47.620;12.188;2023-02-01T00:25:54;6.85;;;3.67;;
34828;SDS011;21042;47.620;12.188;2023-02-01T00:28:21;10.73;;;4.32;;
34828;SDS011;21042;47.620;12.188;2023-02-01T00:30:55;15.38;;;5.70;;
34828;SDS011;21042;47.620;12.188;2023-02-01T00:33:29;11.23;;;5.43;;
34828;SDS011;21042;47.620;12.188;2023-02-01T00:35:57;12.23;;;5.63;;
34828;SDS011;21042;47.620;12.188;2023-02-01T00:38:25;10.93;;;5.30;;
34828;SDS011;21042;47.620;12.188;2023-02-01T00:40:53;12.27;;;4.82;;
34828;SDS011;21042;47.620;12.188;2023-02-01T00:43:20;12.48;;;4.10;;
34828;SDS011;21042;47.620;12.188;2023-02-01T00:45:46;6.78;;;3.40;;
34828;SDS011;21042;47.620;12.188;2023-02-01T00:48:13;7.25;;;3.72;;
34828;SDS011;21042;47.620;12.188;2023-02-01T00:50:43;5.43;;;2.13;;
34828;SDS011;21042;47.620;12.188;2023-02-01T00:53:10;9.63;;;2.88;;
34828;SDS011;21042;47.620;12.188;2023-02-01T00:55:37;7.22;;;3.47;;
34828;SDS011;21042;47.620;12.188;2023-02-01T00:58:03;9.05;;;3.80;;
34828;SDS011;21042;47.620;12.188;2023-02-01T01:00:32;8.77;;;3.90;;
34828;SDS011;21042;47.620;12.188;2023-02-01T01:02:59;8.73;;;4.43;;
34828;SDS011;21042;47.620;12.188;2023-02-01T01:05:26;9.02;;;4.78;;
34828;SDS011;21042;47.620;12.188;2023-02-01T01:07:54;11.68;;;5.10;;
34828;SDS011;21042;47.620;12.188;2023-02-01T01:10:20;9.38;;;3.65;;
34828;SDS011;21042;47.620;12.188;2023-02-01T01:12:48;15.60;;;5.50;;
34828;SDS011;21042;47.620;12.188;2023-02-01T01:15:15;10.18;;;5.70;;
34828;SDS011;21042;47.620;12.188;2023-02-01T01:17:42;12.05;;;6.00;;
34828;SDS011;21042;47.620;12.188;2023-02-01T01:20:08;10.20;;;4.30;;
34828;SDS011;21042;47.620;12.188;2023-02-01T01:22:36;12.13;;;5.53;;
34828;SDS011;21042;47.620;12.188;2023-02-01T01:25:02;17.00;;;6.55;;
34828;SDS011;21042;47.620;12.188;2023-02-01T01:27:29;11.27;;;6.22;;
34828;SDS011;21042;47.620;12.188;2023-02-01T01:29:56;10.93;;;5.50;;
34828;SDS011;21042;47.620;12.188;2023-02-01T01:32:23;7.18;;;3.63;;
34828;SDS011;21042;47.620;12.188;2023-02-01T01:34:50;14.35;;;6.03;;
34828;SDS011;21042;47.620;12.188;2023-02-01T01:37:16;11.57;;;5.85;;
34828;SDS011;21042;47.620;12.188;2023-02-01T01:39:43;11.40;;;5.43;;
34828;SDS011;21042;47.620;12.188;2023-02-01T01:42:11;8.90;;;3.70;;
34828;SDS011;21042;47.620;12.188;2023-02-01T01:47:26;11.73;;;5.78;;
34828;SDS011;21042;47.620;12.188;2023-02-01T01:50:06;13.80;;;6.38;;
34828;SDS011;21042;47.620;12.188;2023-02-01T01:52:36;12.07;;;6.05;;
34828;SDS011;21042;47.620;12.188;2023-02-01T01:55:05;14.75;;;6.53;;
34828;SDS011;21042;47.620;12.188;2023-02-01T01:57:33;11.98;;;5.25;;
34828;SDS011;21042;47.620;12.188;2023-02-01T02:00:13;12.52;;;5.85;;
34828;SDS011;21042;47.620;12.188;2023-02-01T02:02:44;9.57;;;5.82;;
34828;SDS011;21042;47.620;12.188;2023-02-01T02:05:13;12.75;;;6.07;;
34828;SDS011;21042;47.620;12.188;2023-02-01T02:07:43;19.83;;;6.75;;
34828;SDS011;21042;47.620;12.188;2023-02-01T02:10:13;15.40;;;6.45;;
34828;SDS011;21042;47.620;12.188;2023-02-01T02:12:42;17.88;;;7.10;;
34828;SDS011;21042;47.620;12.188;2023-02-01T02:15:12;13.45;;;6.82;;
34828;SDS011;21042;47.620;12.188;2023-02-01T02:17:47;12.13;;;6.50;;
34828;SDS011;21042;47.620;12.188;2023-02-01T02:20:38;10.15;;;6.25;;
34828;SDS011;21042;47.620;12.188;2023-02-01T02:26:45;17.85;;;6.78;;
34828;SDS011;21042;47.620;12.188;2023-02-01T02:35:26;8.40;;;2.72;;
34828;SDS011;21042;47.620;12.188;2023-02-01T02:41:05;10.55;;;4.18;;
34828;SDS011;21042;47.620;12.188;2023-02-01T02:44:13;12.68;;;5.78;;
34828;SDS011;21042;47.620;12.188;2023-02-01T02:47:11;15.45;;;5.85;;
34828;SDS011;21042;47.620;12.188;2023-02-01T02:49:57;11.48;;;5.53;;
34828;SDS011;21042;47.620;12.188;2023-02-01T02:52:57;14.55;;;5.80;;
34828;SDS011;21042;47.620;12.188;2023-02-01T02:55:50;11.95;;;6.40;;
34828;SDS011;21042;47.620;12.188;2023-02-01T02:58:18;12.52;;;5.90;;
34828;SDS011;21042;47.620;12.188;2023-02-01T03:01:06;11.90;;;5.90;;
34828;SDS011;21042;47.620;12.188;2023-02-01T03:03:52;16.05;;;6.45;;
34828;SDS011;21042;47.620;12.188;2023-02-01T03:06:37;13.52;;;6.30;;
34828;SDS011;21042;47.620;12.188;2023-02-01T03:09:06;13.05;;;6.63;;
34828;SDS011;21042;47.620;12.188;2023-02-01T03:11:47;12.73;;;5.78;;
34828;SDS011;21042;47.620;12.188;2023-02-01T03:14:35;14.18;;;6.30;;
34828;SDS011;21042;47.620;12.188;2023-02-01T03:17:07;13.13;;;6.22;;
34828;SDS011;21042;47.620;12.188;2023-02-01T03:19:39;13.57;;;5.72;;
34828;SDS011;21042;47.620;12.188;2023-02-01T03:22:15;12.23;;;5.45;;
34828;SDS011;21042;47.620;12.188;2023-02-01T03:24:47;12.13;;;5.35;;
34828;SDS011;21042;47.620;12.188;2023-02-01T03:27:24;12.10;;;5.13;;
34828;SDS011;21042;47.620;12.188;2023-02-01T03:29:59;11.90;;;6.72;;
34828;SDS011;21042;47.620;12.188;2023-02-01T03:32:32;10.88;;;5.82;;
34828;SDS011;21042;47.620;12.188;2023-02-01T03:35:23;10.68;;;5.65;;
34828;SDS011;21042;47.620;12.188;2023-02-01T03:41:17;15.02;;;6.20;;
34828;SDS011;21042;47.620;12.188;2023-02-01T03:49:03;10.75;;;5.18;;
34828;SDS011;21042;47.620;12.188;2023-02-01T03:51:35;12.43;;;5.90;;
34828;SDS011;21042;47.620;12.188;2023-02-01T03:54:04;16.88;;;6.35;;
34828;SDS011;21042;47.620;12.188;2023-02-01T03:56:34;9.85;;;5.55;;
34828;SDS011;21042;47.620;12.188;2023-02-01T03:59:04;11.68;;;5.55;;
34828;SDS011;21042;47.620;12.188;2023-02-01T04:01:33;14.05;;;5.82;;
34828;SDS011;21042;47.620;12.188;2023-02-01T04:04:00;14.65;;;5.68;;
34828;SDS011;21042;47.620;12.188;2023-02-01T04:06:27;14.68;;;6.32;;
34828;SDS011;21042;47.620;12.188;2023-02-01T04:08:58;12.63;;;6.18;;
34828;SDS011;21042;47.620;12.188;2023-02-01T04:11:25;13.43;;;5.32;;
34828;SDS011;21042;47.620;12.188;2023-02-01T04:13:53;11.32;;;6.07;;
34828;SDS011;21042;47.620;12.188;2023-02-01T04:16:20;12.85;;;6.07;;
34828;SDS011;21042;47.620;12.188;2023-02-01T04:18:46;10.38;;;4.72;;
34828;SDS011;21042;47.620;12.188;2023-02-01T04:21:13;10.35;;;5.10;;
34828;SDS011;21042;47.620;12.188;2023-02-01T04:23:40;11.88;;;6.35;;
34828;SDS011;21042;47.620;12.188;2023-02-01T04:26:06;7.68;;;4.38;;
34828;SDS011;21042;47.620;12.188;2023-02-01T04:28:33;8.23;;;3.92;;
34828;SDS011;21042;47.620;12.188;2023-02-01T04:31:00;12.15;;;5.18;;
34828;SDS011;21042;47.620;12.188;2023-02-01T04:33:27;11.57;;;6.03;;
34828;SDS011;21042;47.620;12.188;2023-02-01T04:35:53;12.93;;;5.30;;
34828;SDS011;21042;47.620;12.188;2023-02-01T04:38:20;11.27;;;5.20;;
34828;SDS011;21042;47.620;12.188;2023-02-01T04:40:47;9.55;;;4.90;;
34828;SDS011;21042;47.620;12.188;2023-02-01T04:43:15;11.77;;;5.05;;
34828;SDS011;21042;47.620;12.188;2023-02-01T04:45:46;8.68;;;5.15;;
34828;SDS011;21042;47.620;12.188;2023-02-01T04:48:15;10.13;;;4.72;;
34828;SDS011;21042;47.620;12.188;2023-02-01T04:50:42;12.25;;;5.03;;
34828;SDS011;21042;47.620;12.188;2023-02-01T04:53:16;11.00;;;5.15;;
34828;SDS011;21042;47.620;12.188;2023-02-01T04:55:43;12.45;;;5.88;;
34828;SDS011;21042;47.620;12.188;2023-02-01T04:58:10;14.65;;;6.18;;
34828;SDS011;21042;47.620;12.188;2023-02-01T05:00:37;12.75;;;6.70;;
34828;SDS011;21042;47.620;12.188;2023-02-01T05:03:04;7.18;;;4.00;;
34828;SDS011;21042;47.620;12.188;2023-02-01T05:05:31;11.23;;;5.53;;
34828;SDS011;21042;47.620;12.188;2023-02-01T05:07:58;11.30;;;5.35;;
34828;SDS011;21042;47.620;12.188;2023-02-01T05:10:25;15.68;;;5.65;;
34828;SDS011;21042;47.620;12.188;2023-02-01T05:12:51;14.73;;;6.28;;
34828;SDS011;21042;47.620;12.188;2023-02-01T05:15:37;12.75;;;6.35;;
34828;SDS011;21042;47.620;12.188;2023-02-01T05:18:04;13.32;;;5.93;;
34828;SDS011;21042;47.620;12.188;2023-02-01T05:20:30;10.18;;;5.80;;
34828;SDS011;21042;47.620;12.188;2023-02-01T05:22:57;10.30;;;5.88;;
34828;SDS011;21042;47.620;12.188;2023-02-01T05:25:24;14.82;;;8.23;;
34828;SDS011;21042;47.620;12.188;2023-02-01T05:27:50;8.88;;;5.43;;
34828;SDS011;21042;47.620;12.188;2023-02-01T05:30:19;10.23;;;5.85;;
34828;SDS011;21042;47.620;12.188;2023-02-01T05:32:48;7.03;;;4.40;;
34828;SDS011;21042;47.620;12.188;2023-02-01T05:35:16;10.73;;;4.90;;
34828;SDS011;21042;47.620;12.188;2023-02-01T05:37:43;16.77;;;7.93;;
34828;SDS011;21042;47.620;12.188;2023-02-01T05:40:10;15.02;;;7.60;;
34828;SDS011;21042;47.620;12.188;2023-02-01T05:42:37;14.88;;;7.47;;
34828;SDS011;21042;47.620;12.188;2023-02-01T05:45:03;14.10;;;5.28;;
34828;SDS011;21042;47.620;12.188;2023-02-01T05:47:31;3.63;;;1.77;;
34828;SDS011;21042;47.620;12.188;2023-02-01T05:49:58;3.33;;;1.70;;
34828;SDS011;21042;47.620;12.188;2023-02-01T05:52:24;4.88;;;2.20;;
34828;SDS011;21042;47.620;12.188;2023-02-01T05:54:51;3.58;;;2.25;;
34828;SDS011;21042;47.620;12.188;2023-02-01T05:57:18;7.82;;;4.10;;
34828;SDS011;21042;47.620;12.188;2023-02-01T05:59:45;6.82;;;3.95;;
34828;SDS011;21042;47.620;12.188;2023-02-01T06:02:13;7.57;;;3.65;;
34828;SDS011;21042;47.620;12.188;2023-02-01T06:07:08;7.32;;;3.85;;
34828;SDS011;21042;47.620;12.188;2023-02-01T06:09:36;13.70;;;6.90;;
34828;SDS011;21042;47.620;12.188;2023-02-01T06:12:03;15.25;;;7.13;;
34828;SDS011;21042;47.620;12.188;2023-02-01T06:14:30;15.05;;;6.95;;
34828;SDS011;21042;47.620;12.188;2023-02-01T06:16:57;10.27;;;6.53;;
34828;SDS011;21042;47.620;12.188;2023-02-01T06:19:24;14.02;;;7.03;;
34828;SDS011;21042;47.620;12.188;2023-02-01T06:21:50;12.30;;;5.80;;
34828;SDS011;21042;47.620;12.188;2023-02-01T06:24:17;12.55;;;6.00;;
34828;SDS011;21042;47.620;12.188;2023-02-01T06:26:44;11.30;;;5.95;;
34828;SDS011;21042;47.620;12.188;2023-02-01T06:29:11;11.20;;;5.45;;
34828;SDS011;21042;47.620;12.188;2023-02-01T06:31:38;9.13;;;4.50;;
34828;SDS011;21042;47.620;12.188;2023-02-01T06:34:05;8.63;;;4.68;;
34828;SDS011;21042;47.620;12.188;2023-02-01T06:36:32;6.25;;;3.47;;
34828;SDS011;21042;47.620;12.188;2023-02-01T06:38:59;8.27;;;5.78;;
34828;SDS011;21042;47.620;12.188;2023-02-01T06:41:26;9.10;;;4.43;;
34828;SDS011;21042;47.620;12.188;2023-02-01T06:43:54;15.23;;;6.95;;
34828;SDS011;21042;47.620;12.188;2023-02-01T06:46:21;16.95;;;6.93;;
34828;SDS011;21042;47.620;12.188;2023-02-01T06:48:48;13.80;;;6.82;;
34828;SDS011;21042;47.620;12.188;2023-02-01T06:51:24;12.45;;;7.28;;
34828;SDS011;21042;47.620;12.188;2023-02-01T06:53:52;15.20;;;7.80;;
34828;SDS011;21042;47.620;12.188;2023-02-01T06:56:19;18.27;;;9.00;;
34828;SDS011;21042;47.620;12.188;2023-02-01T06:58:46;17.42;;;8.90;;
34828;SDS011;21042;47.620;12.188;2023-02-01T07:01:13;18.98;;;8.85;;
34828;SDS011;21042;47.620;12.188;2023-02-01T07:03:41;12.55;;;7.63;;
34828;SDS011;21042;47.620;12.188;2023-02-01T07:06:09;10.63;;;6.75;;
34828;SDS011;21042;47.620;12.188;2023-02-01T07:08:36;12.07;;;7.30;;
34828;SDS011;21042;47.620;12.188;2023-02-01T07:11:08;15.55;;;7.68;;
34828;SDS011;21042;47.620;12.188;2023-02-01T07:13:37;16.20;;;9.23;;
34828;SDS011;21042;47.620;12.188;2023-02-01T07:16:06;16.15;;;8.93;;
34828;SDS011;21042;47.620;12.188;2023-02-01T07:18:36;14.52;;;8.45;;
34828;SDS011;21042;47.620;12.188;2023-02-01T07:21:03;12.50;;;5.45;;
34828;SDS011;21042;47.620;12.188;2023-02-01T07:23:29;13.13;;;8.20;;
34828;SDS011;21042;47.620;12.188;2023-02-01T07:25:57;16.13;;;9.25;;
34828;SDS011;21042;47.620;12.188;2023-02-01T07:28:27;17.90;;;8.73;;
34828;SDS011;21042;47.620;12.188;2023-02-01T07:30:55;20.85;;;8.43;;
34828;SDS011;21042;47.620;12.188;2023-02-01T07:33:32;24.00;;;9.98;;
34828;SDS011;21042;47.620;12.188;2023-02-01T07:36:00;43.83;;;17.90;;
34828;SDS011;21042;47.620;12.188;2023-02-01T07:38:28;31.80;;;15.27;;
34828;SDS011;21042;47.620;12.188;2023-02-01T07:40:59;36.92;;;17.30;;
34828;SDS011;21042;47.620;12.188;2023-02-01T07:43:27;44.83;;;19.73;;
34828;SDS011;21042;47.620;12.188;2023-02-01T07:45:54;53.65;;;22.25;;
34828;SDS011;21042;47.620;12.188;2023-02-01T07:48:23;40.40;;;19.13;;
34828;SDS011;21042;47.620;12.188;2023-02-01T07:51:25;45.58;;;19.30;;
34828;SDS011;21042;47.620;12.188;2023-02-01T07:53:44;20.70;;;10.27;;
34828;SDS011;21042;47.620;12.188;2023-02-01T07:56:12;28.67;;;13.40;;
34828;SDS011;21042;47.620;12.188;2023-02-01T07:58:46;30.25;;;13.15;;
34828;SDS011;21042;47.620;12.188;2023-02-01T08:01:19;28.85;;;12.68;;
34828;SDS011;21042;47.620;12.188;2023-02-01T08:03:52;21.85;;;11.43;;
34828;SDS011;21042;47.620;12.188;2023-02-01T08:06:23;18.67;;;9.25;;
34828;SDS011;21042;47.620;12.188;2023-02-01T08:08:51;16.15;;;7.80;;
34828;SDS011;21042;47.620;12.188;2023-02-01T08:11:20;10.82;;;6.70;;
34828;SDS011;21042;47.620;12.188;2023-02-01T08:13:47;13.45;;;6.88;;
34828;SDS011;21042;47.620;12.188;2023-02-01T08:16:15;14.88;;;8.07;;
34828;SDS011;21042;47.620;12.188;2023-02-01T08:18:43;12.93;;;7.03;;
34828;SDS011;21042;47.620;12.188;2023-02-01T08:21:11;14.18;;;7.90;;
34828;SDS011;21042;47.620;12.188;2023-02-01T08:23:48;12.63;;;6.10;;
34828;SDS011;21042;47.620;12.188;2023-02-01T08:26:22;14.18;;;7.38;;
34828;SDS011;21042;47.620;12.188;2023-02-01T08:29:00;12.80;;;6.68;;
34828;SDS011;21042;47.620;12.188;2023-02-01T08:31:29;12.50;;;6.60;;
34828;SDS011;21042;47.620;12.188;2023-02-01T08:33:57;21.08;;;8.23;;
34828;SDS011;21042;47.620;12.188;2023-02-01T08:36:27;15.27;;;6.68;;
34828;SDS011;21042;47.620;12.188;2023-02-01T08:38:55;16.27;;;6.15;;
34828;SDS011;21042;47.620;12.188;2023-02-01T08:41:23;11.50;;;5.80;;
34828;SDS011;21042;47.620;12.188;2023-02-01T08:43:51;17.33;;;7.38;;
34828;SDS011;21042;47.620;12.188;2023-02-01T08:46:20;13.50;;;5.57;;
34828;SDS011;21042;47.620;12.188;2023-02-01T08:48:47;10.10;;;3.85;;
34828;SDS011;21042;47.620;12.188;2023-02-01T08:53:42;10.80;;;5.45;;
34828;SDS011;21042;47.620;12.188;2023-02-01T08:56:10;13.48;;;5.32;;
34828;SDS011;21042;47.620;12.188;2023-02-01T08:58:38;10.18;;;5.63;;
34828;SDS011;21042;47.620;12.188;2023-02-01T09:01:09;8.43;;;4.60;;
34828;SDS011;21042;47.620;12.188;2023-02-01T09:03:38;14.13;;;6.45;;
34828;SDS011;21042;47.620;12.188;2023-02-01T09:06:07;11.50;;;6.32;;
34828;SDS011;21042;47.620;12.188;2023-02-01T09:08:36;14.50;;;5.97;;
34828;SDS011;21042;47.620;12.188;2023-02-01T09:11:07;17.33;;;6.20;;
34828;SDS011;21042;47.620;12.188;2023-02-01T09:13:37;9.63;;;5.70;;
34828;SDS011;21042;47.620;12.188;2023-02-01T09:16:04;13.07;;;6.38;;
34828;SDS011;21042;47.620;12.188;2023-02-01T09:20:57;16.70;;;6.68;;
34828;SDS011;21042;47.620;12.188;2023-02-01T09:23:24;13.68;;;6.50;;
34828;SDS011;21042;47.620;12.188;2023-02-01T09:25:51;12.38;;;5.68;;
34828;SDS011;21042;47.620;12.188;2023-02-01T09:28:18;11.77;;;6.70;;
34828;SDS011;21042;47.620;12.188;2023-02-01T09:30:45;12.98;;;6.05;;
34828;SDS011;21042;47.620;12.188;2023-02-01T09:33:12;15.85;;;6.80;;
34828;SDS011;21042;47.620;12.188;2023-02-01T09:35:38;11.57;;;7.05;;
34828;SDS011;21042;47.620;12.188;2023-02-01T09:38:05;11.32;;;5.90;;
34828;SDS011;21042;47.620;12.188;2023-02-01T09:40:33;11.07;;;6.07;;
34828;SDS011;21042;47.620;12.188;2023-02-01T09:45:44;14.40;;;7.50;;
34828;SDS011;21042;47.620;12.188;2023-02-01T09:50:48;17.38;;;8.30;;
34828;SDS011;21042;47.620;12.188;2023-02-01T09:53:27;11.85;;;6.05;;
34828;SDS011;21042;47.620;12.188;2023-02-01T09:56:06;12.73;;;6.38;;
34828;SDS011;21042;47.620;12.188;2023-02-01T09:58:42;17.83;;;6.22;;
34828;SDS011;21042;47.620;12.188;2023-02-01T10:01:22;75.95;;;23.98;;
34828;SDS011;21042;47.620;12.188;2023-02-01T10:03:51;22.95;;;10.60;;
34828;SDS011;21042;47.620;12.188;2023-02-01T10:11:47;17.80;;;7.30;;
34828;SDS011;21042;47.620;12.188;2023-02-01T10:22:15;16.23;;;7.30;;
34828;SDS011;21042;47.620;12.188;2023-02-01T10:28:00;10.55;;;6.38;;
34828;SDS011;21042;47.620;12.188;2023-02-01T10:30:30;17.08;;;7.95;;
34828;SDS011;21042;47.620;12.188;2023-02-01T10:33:14;17.65;;;8.27;;
34828;SDS011;21042;47.620;12.188;2023-02-01T10:35:48;11.98;;;6.90;;
34828;SDS011;21042;47.620;12.188;2023-02-01T10:38:25;14.68;;;7.22;;
34828;SDS011;21042;47.620;12.188;2023-02-01T10:40:55;12.13;;;6.75;;
34828;SDS011;21042;47.620;12.188;2023-02-01T10:43:28;31.30;;;10.82;;
34828;SDS011;21042;47.620;12.188;2023-02-01T10:45:56;18.00;;;7.82;;
34828;SDS011;21042;47.620;12.188;2023-02-01T10:48:23;10.93;;;5.75;;
34828;SDS011;21042;47.620;12.188;2023-02-01T10:50:54;12.20;;;6.75;;
34828;SDS011;21042;47.620;12.188;2023-02-01T10:53:29;12.00;;;6.45;;
34828;SDS011;21042;47.620;12.188;2023-02-01T10:56:05;22.85;;;9.25;;
34828;SDS011;21042;47.620;12.188;2023-02-01T10:58:33;13.50;;;6.60;;
34828;SDS011;21042;47.620;12.188;2023-02-01T11:01:09;13.38;;;6.30;;
34828;SDS011;21042;47.620;12.188;2023-02-01T11:04:00;11.07;;;5.80;;
34828;SDS011;21042;47.620;12.188;2023-02-01T11:06:35;11.98;;;6.20;;
34828;SDS011;21042;47.620;12.188;2023-02-01T11:11:33;11.75;;;5.53;;
34828;SDS011;21042;47.620;12.188;2023-02-01T11:14:26;11.23;;;5.43;;
34828;SDS011;21042;47.620;12.188;2023-02-01T11:19:29;10.48;;;5.45;;
34828;SDS011;21042;47.620;12.188;2023-02-01T11:21:57;12.00;;;6.32;;
34828;SDS011;21042;47.620;12.188;2023-02-01T11:27:00;13.25;;;5.95;;
34828;SDS011;21042;47.620;12.188;2023-02-01T11:29:34;10.88;;;6.30;;
34828;SDS011;21042;47.620;12.188;2023-02-01T11:32:04;12.07;;;5.93;;
34828;SDS011;21042;47.620;12.188;2023-02-01T11:34:34;16.98;;;7.53;;
34828;SDS011;21042;47.620;12.188;2023-02-01T11:37:04;13.98;;;8.20;;
34828;SDS011;21042;47.620;12.188;2023-02-01T11:39:52;15.45;;;7.10;;
34828;SDS011;21042;47.620;12.188;2023-02-01T11:42:21;14.70;;;7.03;;
34828;SDS011;21042;47.620;12.188;2023-02-01T11:44:48;15.95;;;6.55;;
34828;SDS011;21042;47.620;12.188;2023-02-01T11:49:55;9.43;;;5.55;;
34828;SDS011;21042;47.620;12.188;2023-02-01T11:55:01;13.55;;;6.30;;
34828;SDS011;21042;47.620;12.188;2023-02-01T11:57:59;10.05;;;5.78;;
34828;SDS011;21042;47.620;12.188;2023-02-01T12:00:36;12.02;;;5.97;;
34828;SDS011;21042;47.620;12.188;2023-02-01T12:03:28;8.80;;;5.57;;
34828;SDS011;21042;47.620;12.188;2023-02-01T12:06:05;10.05;;;5.43;;
34828;SDS011;21042;47.620;12.188;2023-02-01T12:11:17;14.82;;;6.07;;
34828;SDS011;21042;47.620;12.188;2023-02-01T12:14:08;24.30;;;9.20;;
34828;SDS011;21042;47.620;12.188;2023-02-01T12:19:44;37.15;;;12.05;;
34828;SDS011;21042;47.620;12.188;2023-02-01T12:36:36;10.88;;;4.25;;
34828;SDS011;21042;47.620;12.188;2023-02-01T12:42:14;8.13;;;3.13;;
34828;SDS011;21042;47.620;12.188;2023-02-01T12:44:50;6.03;;;3.10;;
34828;SDS011;21042;47.620;12.188;2023-02-01T12:47:30;7.63;;;2.83;;
34828;SDS011;21042;47.620;12.188;2023-02-01T12:53:07;2.72;;;1.75;;
34828;SDS011;21042;47.620;12.188;2023-02-01T12:55:50;3.75;;;1.20;;
34828;SDS011;21042;47.620;12.188;2023-02-01T12:58:22;1.42;;;0.70;;
34828;SDS011;21042;47.620;12.188;2023-02-01T13:01:00;2.00;;;0.63;;
34828;SDS011;21042;47.620;12.188;2023-02-01T13:06:31;1.45;;;0.85;;
34828;SDS011;21042;47.620;12.188;2023-02-01T13:09:09;1.23;;;0.75;;
34828;SDS011;21042;47.620;12.188;2023-02-01T13:11:50;3.03;;;0.90;;
34828;SDS011;21042;47.620;12.188;2023-02-01T13:14:32;0.85;;;0.60;;
34828;SDS011;21042;47.620;12.188;2023-02-01T13:17:05;1.10;;;0.60;;
34828;SDS011;21042;47.620;12.188;2023-02-01T13:22:28;2.92;;;1.00;;
34828;SDS011;21042;47.620;12.188;2023-02-01T13:25:03;1.05;;;0.70;;
34828;SDS011;21042;47.620;12.188;2023-02-01T13:27:38;3.50;;;0.70;;
34828;SDS011;21042;47.620;12.188;2023-02-01T13:41:29;2.72;;;0.88;;
34828;SDS011;21042;47.620;12.188;2023-02-01T13:44:05;1.02;;;0.80;;
34828;SDS011;21042;47.620;12.188;2023-02-01T13:46:42;1.05;;;0.60;;
34828;SDS011;21042;47.620;12.188;2023-02-01T13:49:18;1.77;;;0.82;;
34828;SDS011;21042;47.620;12.188;2023-02-01T13:51:49;3.58;;;2.30;;
34828;SDS011;21042;47.620;12.188;2023-02-01T13:54:26;4.65;;;0.90;;
34828;SDS011;21042;47.620;12.188;2023-02-01T13:56:53;2.95;;;0.70;;
34828;SDS011;21042;47.620;12.188;2023-02-01T13:59:35;2.25;;;0.90;;
34828;SDS011;21042;47.620;12.188;2023-02-01T14:05:10;1.00;;;0.63;;
34828;SDS011;21042;47.620;12.188;2023-02-01T14:26:19;3.90;;;0.80;;
34828;SDS011;21042;47.620;12.188;2023-02-01T14:34:17;2.08;;;0.90;;
34828;SDS011;21042;47.620;12.188;2023-02-01T14:37:06;1.73;;;0.65;;
34828;SDS011;21042;47.620;12.188;2023-02-01T14:42:35;2.53;;;0.95;;
34828;SDS011;21042;47.620;12.188;2023-02-01T14:58:35;2.53;;;0.98;;
34828;SDS011;21042;47.620;12.188;2023-02-01T15:04:11;2.28;;;1.10;;
34828;SDS011;21042;47.620;12.188;2023-02-01T15:14:27;1.15;;;0.80;;
34828;SDS011;21042;47.620;12.188;2023-02-01T15:16:55;2.67;;;1.38;;
34828;SDS011;21042;47.620;12.188;2023-02-01T15:19:24;5.97;;;4.22;;
34828;SDS011;21042;47.620;12.188;2023-02-01T15:21:53;10.65;;;3.50;;
34828;SDS011;21042;47.620;12.188;2023-02-01T15:24:26;3.47;;;1.80;;
34828;SDS011;21042;47.620;12.188;2023-02-01T15:27:02;3.22;;;1.23;;
34828;SDS011;21042;47.620;12.188;2023-02-01T15:29:30;1.67;;;1.10;;
34828;SDS011;21042;47.620;12.188;2023-02-01T15:31:59;2.67;;;1.33;;
34828;SDS011;21042;47.620;12.188;2023-02-01T15:37:13;4.28;;;1.63;;
34828;SDS011;21042;47.620;12.188;2023-02-01T15:45:21;4.25;;;1.73;;
34828;SDS011;21042;47.620;12.188;2023-02-01T15:47:52;2.95;;;1.48;;
34828;SDS011;21042;47.620;12.188;2023-02-01T15:50:20;5.10;;;2.28;;
34828;SDS011;21042;47.620;12.188;2023-02-01T15:52:52;4.88;;;1.90;;
34828;SDS011;21042;47.620;12.188;2023-02-01T15:55:22;9.70;;;2.03;;
34828;SDS011;21042;47.620;12.188;2023-02-01T15:58:07;6.20;;;2.08;;
34828;SDS011;21042;47.620;12.188;2023-02-01T16:00:43;2.72;;;1.20;;
34828;SDS011;21042;47.620;12.188;2023-02-01T16:06:03;3.67;;;1.50;;
34828;SDS011;21042;47.620;12.188;2023-02-01T16:08:32;4.55;;;1.40;;
34828;SDS011;21042;47.620;12.188;2023-02-01T16:11:12;1.90;;;1.00;;
34828;SDS011;21042;47.620;12.188;2023-02-01T16:13:54;1.92;;;0.90;;
34828;SDS011;21042;47.620;12.188;2023-02-01T16:16:21;4.78;;;1.23;;
34828;SDS011;21042;47.620;12.188;2023-02-01T16:18:47;10.15;;;3.88;;
34828;SDS011;21042;47.620;12.188;2023-02-01T16:21:14;6.82;;;3.55;;
34828;SDS011;21042;47.620;12.188;2023-02-01T16:23:41;7.43;;;3.17;;
34828;SDS011;21042;47.620;12.188;2023-02-01T16:26:08;3.10;;;1.58;;
34828;SDS011;21042;47.620;12.188;2023-02-01T16:28:35;6.32;;;1.60;;
34828;SDS011;21042;47.620;12.188;2023-02-01T16:31:01;1.42;;;0.90;;
34828;SDS011;21042;47.620;12.188;2023-02-01T16:33:28;1.77;;;1.00;;
34828;SDS011;21042;47.620;12.188;2023-02-01T16:35:55;3.58;;;0.80;;
34828;SDS011;21042;47.620;12.188;2023-02-01T16:38:26;5.90;;;1.58;;
34828;SDS011;21042;47.620;12.188;2023-02-01T16:40:53;4.47;;;1.60;;
34828;SDS011;21042;47.620;12.188;2023-02-01T16:43:20;4.15;;;2.00;;
34828;SDS011;21042;47.620;12.188;2023-02-01T16:45:49;4.35;;;1.83;;
34828;SDS011;21042;47.620;12.188;2023-02-01T16:50:53;12.10;;;5.20;;
34828;SDS011;21042;47.620;12.188;2023-02-01T16:53:22;49.40;;;22.95;;
34828;SDS011;21042;47.620;12.188;2023-02-01T16:55:51;32.72;;;13.93;;
34828;SDS011;21042;47.620;12.188;2023-02-01T16:58:19;22.83;;;12.13;;
34828;SDS011;21042;47.620;12.188;2023-02-01T17:00:47;19.77;;;11.45;;
34828;SDS011;21042;47.620;12.188;2023-02-01T17:03:14;16.60;;;10.68;;
34828;SDS011;21042;47.620;12.188;2023-02-01T17:05:43;25.70;;;10.68;;
34828;SDS011;21042;47.620;12.188;2023-02-01T17:08:24;12.77;;;5.80;;
34828;SDS011;21042;47.620;12.188;2023-02-01T17:10:57;15.30;;;7.35;;
34828;SDS011;21042;47.620;12.188;2023-02-01T17:13:24;5.63;;;2.00;;
34828;SDS011;21042;47.620;12.188;2023-02-01T17:15:52;8.48;;;2.78;;
34828;SDS011;21042;47.620;12.188;2023-02-01T17:18:24;9.23;;;2.00;;
34828;SDS011;21042;47.620;12.188;2023-02-01T17:21:00;4.30;;;1.48;;
34828;SDS011;21042;47.620;12.188;2023-02-01T17:23:28;4.55;;;1.60;;
34828;SDS011;21042;47.620;12.188;2023-02-01T17:25:56;3.65;;;2.08;;
34828;SDS011;21042;47.620;12.188;2023-02-01T17:28:23;8.48;;;2.60;;
34828;SDS011;21042;47.620;12.188;2023-02-01T17:33:25;5.13;;;2.47;;
34828;SDS011;21042;47.620;12.188;2023-02-01T17:36:02;8.40;;;3.33;;
34828;SDS011;21042;47.620;12.188;2023-02-01T17:38:30;10.35;;;3.78;;
34828;SDS011;21042;47.620;12.188;2023-02-01T17:40:56;6.75;;;3.83;;
34828;SDS011;21042;47.620;12.188;2023-02-01T17:43:24;4.35;;;1.30;;
34828;SDS011;21042;47.620;12.188;2023-02-01T17:45:52;3.00;;;1.10;;
34828;SDS011;21042;47.620;12.188;2023-02-01T17:48:23;8.48;;;3.63;;
34828;SDS011;21042;47.620;12.188;2023-02-01T17:50:53;7.32;;;1.88;;